Terminal Aerodrome Forecast
Issued by NWS

Home | Current Version | Previous Version | Graphics & Text | Print | Product List | Glossary On
Versions: 1 2 3 4 5 6 7 8 9 10 11 12 13 14 15 16 17 18
000
FTUS43 KMPX 180500
TAFRNH
TAF
KRNH 180527Z 1806/1906 00000KT P6SM SKC
     FM180700 00000KT 2SM BR SCT002
     FM181000 05003KT 4SM BR BKN100
     FM181300 11006KT P6SM BKN080
     FM181800 12008KT P6SM SCT100 SCT250
     FM182200 12013KT P6SM BKN100
     FM190300 12012KT P6SM SCT250=

USA.gov is the U.S. government's official web portal to all federal, state and local government web resources and services.